createdAt,value
2019-04-03T02:22:22.005Z,14.50
2019-04-03T02:24:52.528Z,14.60
2019-04-03T02:27:23.289Z,15.20
2019-04-03T02:29:54.396Z,14.43
2019-04-03T02:32:27.081Z,14.45
2019-04-03T02:34:58.563Z,13.78
2019-04-03T02:37:29.520Z,13.62
2019-04-03T02:40:00.595Z,13.75
2019-04-03T02:45:22.780Z,13.80
2019-04-03T02:47:51.250Z,14.35
2019-04-03T02:50:24.603Z,17.92
2019-04-03T02:55:29.070Z,14.50
2019-04-03T02:57:59.865Z,12.47
2019-04-03T03:00:33.238Z,14.15
2019-04-03T03:03:02.817Z,14.00
2019-04-03T03:05:34.186Z,13.65
2019-04-03T03:08:08.227Z,14.05
2019-04-03T03:10:37.274Z,13.90
2019-04-03T03:13:08.472Z,14.10
2019-04-03T03:15:39.174Z,15.25
2019-04-03T03:18:10.315Z,15.40
2019-04-03T03:20:41.149Z,13.93
2019-04-03T03:23:12.649Z,14.15
2019-04-03T03:25:43.751Z,13.22
2019-04-03T03:28:15.243Z,14.65
2019-04-03T03:30:57.941Z,14.18
2019-04-03T03:33:29.984Z,13.83
2019-04-03T03:35:53.599Z,13.03
2019-04-03T03:38:27.277Z,13.38
2019-04-03T03:40:56.978Z,13.95
2019-04-03T03:43:27.846Z,11.55
2019-04-03T03:45:58.879Z,12.15
2019-04-03T03:48:30.009Z,12.70
2019-04-03T03:51:03.170Z,14.07
2019-04-03T03:53:34.506Z,12.63
2019-04-03T03:56:06.198Z,11.73
2019-04-03T03:58:36.904Z,13.20
2019-04-03T04:01:07.876Z,13.03
2019-04-03T04:03:41.116Z,11.95
2019-04-03T04:06:11.308Z,13.25
2019-04-03T04:08:44.111Z,12.93
2019-04-03T04:11:14.476Z,13.50
2019-04-03T04:13:47.914Z,12.88
2019-04-03T04:16:17.493Z,14.87
2019-04-03T04:18:49.485Z,14.65
2019-04-03T04:21:22.557Z,14.15
2019-04-03T04:23:56.019Z,14.38
2019-04-03T04:26:26.567Z,14.85
2019-04-03T04:28:57.220Z,14.50
2019-04-03T04:31:28.185Z,13.43
2019-04-03T04:33:59.391Z,21.48
2019-04-03T04:36:30.439Z,14.25
2019-04-03T04:39:01.502Z,13.98
2019-04-03T04:41:33.120Z,14.43
2019-04-03T04:44:03.747Z,18.00
2019-04-03T04:46:34.929Z,14.87
2019-04-03T04:49:05.624Z,13.95
2019-04-03T04:51:36.964Z,18.87
2019-04-03T04:54:07.893Z,14.90
2019-04-03T04:56:38.650Z,13.72
2019-04-03T04:59:09.220Z,14.75
2019-04-03T05:01:40.036Z,14.10
2019-04-03T05:04:10.626Z,14.93
2019-04-03T05:06:41.479Z,14.47
2019-04-03T05:09:12.839Z,14.73
2019-04-03T05:11:43.680Z,14.63
2019-04-03T05:14:15.800Z,14.07
2019-04-03T05:16:47.230Z,13.63
2019-04-03T05:19:19.435Z,13.62
2019-04-03T05:22:11.476Z,13.60
2019-04-03T05:24:43.435Z,13.45
2019-04-03T05:27:14.127Z,12.95
2019-04-03T05:29:45.060Z,13.40
2019-04-03T05:32:15.651Z,14.63
2019-04-03T05:34:46.520Z,15.23
2019-04-03T05:37:20.020Z,14.43
2019-04-03T05:39:49.970Z,13.35
2019-04-03T05:42:20.657Z,12.82
2019-04-03T05:44:51.680Z,13.68
2019-04-03T05:47:22.336Z,14.05
2019-04-03T05:49:55.598Z,11.93
2019-04-03T05:52:26.165Z,11.47
2019-04-03T05:54:57.030Z,12.55
2019-04-03T05:57:29.456Z,12.00
2019-04-03T06:00:02.104Z,12.53
2019-04-03T06:02:32.664Z,12.88
2019-04-03T06:05:06.285Z,16.55
2019-04-03T06:07:35.803Z,12.80
2019-04-03T06:10:07.658Z,12.75
2019-04-03T06:12:38.484Z,13.78
2019-04-03T06:15:10.303Z,13.83
2019-04-03T06:17:41.164Z,12.33
2019-04-03T06:20:11.997Z,13.55
2019-04-03T06:22:43.189Z,13.00
2019-04-03T06:25:14.508Z,12.10
2019-04-03T06:27:46.377Z,11.20
2019-04-03T06:30:18.047Z,11.40
2019-04-03T06:32:48.740Z,12.47
2019-04-03T06:35:19.512Z,11.90
2019-04-03T06:37:52.494Z,13.70
2019-04-03T06:40:22.470Z,11.63
2019-04-03T06:42:53.144Z,12.00
2019-04-03T06:45:26.154Z,12.55
2019-04-03T06:50:26.267Z,14.58
2019-04-03T06:52:57.365Z,13.13
2019-04-03T06:55:28.279Z,11.97
2019-04-03T06:57:58.986Z,12.82
2019-04-03T07:00:30.202Z,12.68
2019-04-03T07:03:03.094Z,14.85
2019-04-03T07:05:33.435Z,17.12
2019-04-03T07:08:05.039Z,14.85
2019-04-03T07:10:36.630Z,14.75
2019-04-03T07:13:08.010Z,14.13
2019-04-03T07:15:38.888Z,14.78
2019-04-03T07:18:09.595Z,15.20
2019-04-03T07:20:40.843Z,15.72
2019-04-03T07:23:11.581Z,13.15
2019-04-03T07:25:42.150Z,13.30
2019-04-03T07:28:13.458Z,13.20
2019-04-03T07:30:44.462Z,13.68
2019-04-03T07:33:15.325Z,14.25
2019-04-03T07:35:46.432Z,14.13
2019-04-03T07:38:17.219Z,15.88
2019-04-03T07:40:47.972Z,13.48
2019-04-03T07:43:18.864Z,15.32
2019-04-03T07:45:49.550Z,13.03
2019-04-03T07:48:20.157Z,13.65
2019-04-03T07:50:51.177Z,13.58
2019-04-03T07:53:21.878Z,14.13
2019-04-03T07:55:54.998Z,12.23
2019-04-03T07:58:25.735Z,12.28
2019-04-03T08:00:56.500Z,11.60
2019-04-03T08:03:27.440Z,14.45
2019-04-03T08:05:59.212Z,12.43
2019-04-03T08:08:30.491Z,11.88
2019-04-03T08:11:02.224Z,12.68
2019-04-03T08:13:33.782Z,13.80
2019-04-03T08:16:04.368Z,13.98
2019-04-03T08:18:34.896Z,12.23
2019-04-03T08:21:05.992Z,11.22
2019-04-03T08:23:37.567Z,11.10
2019-04-03T08:26:10.968Z,11.63
2019-04-03T08:28:40.971Z,10.13
2019-04-03T08:31:12.371Z,9.58
2019-04-03T08:33:43.302Z,10.13
2019-04-03T08:36:24.315Z,14.60
2019-04-03T08:38:46.492Z,10.08
2019-04-03T08:41:17.299Z,10.32
2019-04-03T08:43:48.343Z,11.18
2019-04-03T08:46:19.369Z,10.23
2019-04-03T08:48:50.109Z,10.70
2019-04-03T08:51:21.002Z,11.28
2019-04-03T08:53:53.908Z,10.72
2019-04-03T08:56:23.848Z,10.30
2019-04-03T08:59:00.053Z,10.13
2019-04-03T09:01:31.289Z,10.00
2019-04-03T09:04:02.419Z,11.63
2019-04-03T09:06:33.290Z,10.30
2019-04-03T09:09:05.446Z,10.85
2019-04-03T09:14:26.363Z,10.50
2019-04-03T09:16:57.036Z,10.78
2019-04-03T09:19:28.086Z,10.38
2019-04-03T09:22:01.256Z,9.93
2019-04-03T09:24:32.253Z,9.60
2019-04-03T09:27:03.298Z,9.88
2019-04-03T09:29:34.154Z,9.73
2019-04-03T09:32:05.069Z,10.10
2019-04-03T09:34:35.923Z,9.83
2019-04-03T09:37:07.203Z,11.53
2019-04-03T09:39:38.071Z,10.53
2019-04-03T09:42:10.817Z,12.30
2019-04-03T09:44:41.750Z,10.93
2019-04-03T09:47:12.852Z,9.40
2019-04-03T09:49:44.183Z,8.83
2019-04-03T09:52:15.237Z,9.98
2019-04-03T09:54:46.303Z,9.58
2019-04-03T09:57:41.238Z,9.35
2019-04-03T10:00:12.511Z,10.58
2019-04-03T10:02:43.245Z,9.38
2019-04-03T10:05:14.430Z,9.53
2019-04-03T10:07:45.301Z,8.83
2019-04-03T10:10:17.207Z,9.20
2019-04-03T10:12:48.896Z,9.93
2019-04-03T10:15:20.434Z,11.03
2019-04-03T10:17:51.067Z,9.13
2019-04-03T10:20:22.006Z,8.13
2019-04-03T10:22:55.815Z,8.08
2019-04-03T10:25:25.002Z,7.87
2019-04-03T10:27:56.748Z,7.25
2019-04-03T10:30:27.806Z,7.35
2019-04-03T10:32:59.551Z,7.20
2019-04-03T10:35:31.714Z,7.90
2019-04-03T10:38:02.333Z,6.65
2019-04-03T10:40:33.129Z,7.83
2019-04-03T10:43:05.715Z,7.35
2019-04-03T10:45:36.344Z,7.80
2019-04-03T10:48:07.422Z,7.78
2019-04-03T10:50:38.639Z,9.85
2019-04-03T10:53:10.423Z,8.33
2019-04-03T10:55:41.552Z,8.68
2019-04-03T10:58:12.439Z,9.23
2019-04-03T11:00:43.613Z,8.95
2019-04-03T11:03:15.268Z,10.05
2019-04-03T11:05:46.167Z,9.53
2019-04-03T11:08:17.089Z,8.35
2019-04-03T11:10:48.598Z,8.98
2019-04-03T11:13:19.264Z,8.28
2019-04-03T11:15:50.375Z,8.55
2019-04-03T11:18:21.833Z,10.30
2019-04-03T11:20:52.723Z,9.55
2019-04-03T11:23:36.467Z,9.03
2019-04-03T11:25:56.213Z,9.83
2019-04-03T11:28:27.028Z,10.63
2019-04-03T11:31:01.105Z,10.60
2019-04-03T11:33:30.062Z,9.95
